createdAt,value
2022-10-01T00:01:38.327Z,10.64
2022-10-01T00:06:47.902Z,10.61
2022-10-01T00:11:55.071Z,10.58
2022-10-01T00:17:03.249Z,10.56
2022-10-01T00:22:18.431Z,10.55
2022-10-01T00:27:25.252Z,10.51
2022-10-01T00:32:56.374Z,10.51
2022-10-01T00:38:08.845Z,10.48
2022-10-01T00:43:41.368Z,10.47
2022-10-01T00:49:13.165Z,10.46
2022-10-01T00:54:29.790Z,10.43
2022-10-01T00:59:58.430Z,10.42
2022-10-01T01:05:16.687Z,10.44
2022-10-01T01:10:46.346Z,10.43
2022-10-01T01:16:02.906Z,10.40
2022-10-01T01:21:38.633Z,10.39
2022-10-01T01:27:11.646Z,10.39
2022-10-01T01:32:33.701Z,10.38
2022-10-01T01:37:47.547Z,10.33
2022-10-01T01:43:13.696Z,10.34
2022-10-01T01:48:21.058Z,10.36
2022-10-01T01:53:35.998Z,10.36
2022-10-01T01:58:48.425Z,10.35
2022-10-01T02:04:04.683Z,10.34
2022-10-01T02:09:21.875Z,10.33
2022-10-01T02:14:47.127Z,10.36
2022-10-01T02:20:06.627Z,10.34
2022-10-01T02:25:33.927Z,10.37
2022-10-01T02:30:58.316Z,10.38
2022-10-01T02:36:14.784Z,10.39
2022-10-01T02:41:43.391Z,10.44
2022-10-01T02:47:22.251Z,10.50
2022-10-01T02:52:42.028Z,10.54
2022-10-01T03:03:33.102Z,10.63
2022-10-01T03:09:00.897Z,10.67
2022-10-01T03:14:11.153Z,10.66
2022-10-01T03:19:20.738Z,10.70
2022-10-01T03:24:32.082Z,10.70
2022-10-01T03:29:47.308Z,10.71
2022-10-01T03:34:54.411Z,10.70
2022-10-01T03:40:06.543Z,10.68
2022-10-01T03:45:13.581Z,10.70
2022-10-01T03:50:23.561Z,10.72
2022-10-01T03:55:34.219Z,10.75
2022-10-01T04:00:42.409Z,10.79
2022-10-01T04:05:51.542Z,10.87
2022-10-01T04:11:01.018Z,10.91
2022-10-01T04:16:07.292Z,10.95
2022-10-01T04:21:19.474Z,11.01
2022-10-01T04:26:30.716Z,11.05
2022-10-01T04:37:01.060Z,11.13
2022-10-01T04:42:15.324Z,11.17
2022-10-01T04:47:26.016Z,11.20
2022-10-01T04:52:34.088Z,11.22
2022-10-01T04:57:56.307Z,11.25
2022-10-01T05:03:07.784Z,11.28
2022-10-01T05:08:16.562Z,11.29
2022-10-01T05:13:32.747Z,11.32
2022-10-01T05:18:48.166Z,11.35
2022-10-01T05:23:52.961Z,11.37
2022-10-01T05:28:59.652Z,11.41
2022-10-01T05:34:13.076Z,11.46
2022-10-01T05:39:31.594Z,11.52
2022-10-01T05:44:47.661Z,11.58
2022-10-01T05:49:52.691Z,11.63
2022-10-01T05:54:57.499Z,11.71
2022-10-01T06:00:08.178Z,11.76
2022-10-01T06:05:16.029Z,11.78
2022-10-01T06:10:28.615Z,11.79
2022-10-01T06:15:52.106Z,11.86
2022-10-01T06:21:00.275Z,11.94
2022-10-01T06:26:18.456Z,11.96
2022-10-01T06:31:29.903Z,12.03
2022-10-01T06:36:36.735Z,12.13
2022-10-01T06:41:45.006Z,12.18
2022-10-01T06:46:55.980Z,12.26
2022-10-01T06:52:20.047Z,12.33
2022-10-01T06:57:28.839Z,12.43
2022-10-01T07:02:50.618Z,12.49
2022-10-01T07:08:04.392Z,12.56
2022-10-01T07:13:21.559Z,12.63
2022-10-01T07:18:36.550Z,12.67
2022-10-01T07:24:05.487Z,12.77
2022-10-01T07:29:16.220Z,12.83
2022-10-01T07:34:35.859Z,12.89
2022-10-01T07:39:57.612Z,12.97
2022-10-01T07:45:11.207Z,12.98
2022-10-01T07:50:47.714Z,13.00
2022-10-01T07:56:08.309Z,12.95
2022-10-01T08:01:49.602Z,12.96
2022-10-01T08:12:22.151Z,12.91
2022-10-01T08:17:32.197Z,12.92
2022-10-01T08:23:49.687Z,12.90
2022-10-01T08:29:24.294Z,12.92
2022-10-01T08:34:34.263Z,12.93
2022-10-01T08:39:45.581Z,12.96
2022-10-01T08:44:54.729Z,12.98
2022-10-01T08:50:24.077Z,12.99
2022-10-01T08:55:38.116Z,13.02
2022-10-01T09:00:50.420Z,13.07
2022-10-01T09:06:10.974Z,13.12
2022-10-01T09:11:33.761Z,13.14
2022-10-01T09:16:55.206Z,13.19
2022-10-01T09:22:22.742Z,13.19
2022-10-01T09:27:36.920Z,13.21
2022-10-01T09:32:58.220Z,13.20
2022-10-01T09:38:06.662Z,13.18
2022-10-01T09:43:20.454Z,13.17
2022-10-01T09:48:38.545Z,13.16
2022-10-01T09:53:52.779Z,13.17
2022-10-01T09:59:11.544Z,13.21
2022-10-01T10:04:35.256Z,13.22
2022-10-01T10:09:41.846Z,13.22
2022-10-01T10:15:02.182Z,13.23
2022-10-01T10:20:44.753Z,13.25
2022-10-01T10:26:02.911Z,13.16
2022-10-01T10:31:16.924Z,13.12
2022-10-01T10:36:42.023Z,13.13
2022-10-01T10:42:00.408Z,13.11
2022-10-01T10:47:18.444Z,13.04
2022-10-01T10:52:37.883Z,13.01
2022-10-01T10:57:46.699Z,13.02
2022-10-01T11:02:57.214Z,13.07
2022-10-01T11:08:12.976Z,13.13
2022-10-01T11:13:35.505Z,13.18
2022-10-01T11:19:07.444Z,13.19
2022-10-01T11:24:35.754Z,13.29
2022-10-01T11:29:58.314Z,13.31
2022-10-01T11:35:29.659Z,13.37
2022-10-01T11:41:04.971Z,13.48
2022-10-01T11:46:25.629Z,13.55
2022-10-01T11:51:39.980Z,13.56
2022-10-01T11:57:13.822Z,13.57
2022-10-01T12:02:26.553Z,13.54
2022-10-01T12:07:39.244Z,13.52
2022-10-01T12:12:54.616Z,13.52
2022-10-01T12:18:20.192Z,13.58
2022-10-01T12:23:39.946Z,13.62
2022-10-01T12:29:13.530Z,13.67
2022-10-01T12:34:39.053Z,13.69
2022-10-01T12:40:07.964Z,13.78
2022-10-01T12:45:28.914Z,13.79
2022-10-01T12:50:42.429Z,13.86
2022-10-01T12:56:10.936Z,13.94
2022-10-01T13:01:31.878Z,14.01
2022-10-01T13:06:49.003Z,14.10
2022-10-01T13:12:22.642Z,14.11
2022-10-01T13:17:51.280Z,14.13
2022-10-01T13:23:23.568Z,14.15
2022-10-01T13:28:49.251Z,14.19
2022-10-01T13:34:06.203Z,14.27
2022-10-01T13:44:47.701Z,14.39
2022-10-01T13:50:28.367Z,14.49
2022-10-01T13:55:41.220Z,14.55
2022-10-01T14:01:03.426Z,14.58
2022-10-01T14:06:33.563Z,14.70
2022-10-01T14:11:57.045Z,14.75
2022-10-01T14:17:12.886Z,14.88
2022-10-01T14:22:30.229Z,14.96
2022-10-01T14:27:51.945Z,15.04
2022-10-01T14:33:31.825Z,15.18
2022-10-01T14:38:54.502Z,15.08
2022-10-01T14:44:48.460Z,15.02
2022-10-01T14:49:57.259Z,15.04
2022-10-01T14:55:20.063Z,15.12
2022-10-01T15:00:31.302Z,15.17
2022-10-01T15:05:47.266Z,15.28
2022-10-01T15:11:24.607Z,15.38
2022-10-01T15:16:34.563Z,15.32
2022-10-01T15:21:53.437Z,15.24
2022-10-01T15:27:20.619Z,15.14
2022-10-01T15:33:01.649Z,15.12
2022-10-01T15:38:09.875Z,15.09
2022-10-01T15:49:28.369Z,14.96
2022-10-01T15:54:36.182Z,14.88
2022-10-01T16:00:00.975Z,14.84
2022-10-01T16:05:11.539Z,14.83
2022-10-01T16:10:41.296Z,14.87
2022-10-01T16:16:28.920Z,14.90
2022-10-01T16:21:46.339Z,14.84
2022-10-01T16:27:00.124Z,14.82
2022-10-01T16:32:20.348Z,14.86
2022-10-01T16:37:27.379Z,14.83
2022-10-01T16:48:04.628Z,14.79
2022-10-01T16:53:18.478Z,14.77
2022-10-01T16:58:28.646Z,14.82
2022-10-01T17:03:38.126Z,14.84
2022-10-01T17:08:52.286Z,14.85
2022-10-01T17:14:04.956Z,14.84
2022-10-01T17:19:17.388Z,14.86
2022-10-01T17:24:25.514Z,14.81
2022-10-01T17:29:36.415Z,14.85
2022-10-01T17:34:47.223Z,14.87
2022-10-01T17:40:39.067Z,14.86
2022-10-01T17:45:56.822Z,14.85
2022-10-01T17:51:11.876Z,14.83
2022-10-01T17:56:20.483Z,14.82
2022-10-01T18:01:46.758Z,14.74
2022-10-01T18:07:00.964Z,14.63
2022-10-01T18:12:06.408Z,14.56
2022-10-01T18:17:14.957Z,14.51
2022-10-01T18:22:23.520Z,14.48
2022-10-01T18:27:32.082Z,14.46
2022-10-01T18:32:46.238Z,14.45
2022-10-01T18:38:01.504Z,14.49
2022-10-01T18:43:25.581Z,14.55
2022-10-01T18:49:00.298Z,14.49
2022-10-01T18:54:35.131Z,14.42
2022-10-01T19:00:09.086Z,14.37
2022-10-01T19:05:40.824Z,14.36
2022-10-01T19:11:05.647Z,14.44
2022-10-01T19:16:29.647Z,14.49
2022-10-01T19:21:45.430Z,14.51
2022-10-01T19:27:22.220Z,14.45
2022-10-01T19:32:38.298Z,14.34
2022-10-01T19:37:52.758Z,14.31
2022-10-01T19:43:17.448Z,14.24
2022-10-01T19:48:38.918Z,14.15
2022-10-01T19:53:51.396Z,14.09
2022-10-01T19:58:57.010Z,14.05
2022-10-01T20:04:24.822Z,14.00
2022-10-01T20:09:48.913Z,13.92
2022-10-01T20:15:21.841Z,13.90
2022-10-01T20:20:39.058Z,13.82
2022-10-01T20:25:48.393Z,13.76
2022-10-01T20:31:09.768Z,13.71
2022-10-01T20:36:24.072Z,13.63
2022-10-01T20:41:43.029Z,13.58
2022-10-01T20:46:56.679Z,13.53
2022-10-01T20:52:07.860Z,13.48
2022-10-01T20:57:38.211Z,13.42
2022-10-01T21:03:05.577Z,13.38
2022-10-01T21:08:19.020Z,13.31
2022-10-01T21:13:35.174Z,13.30
2022-10-01T21:18:53.132Z,13.27
2022-10-01T21:24:13.718Z,13.23
2022-10-01T21:29:58.796Z,13.20
2022-10-01T21:35:29.858Z,13.15
2022-10-01T21:41:14.444Z,13.11
2022-10-01T21:46:25.016Z,13.07
2022-10-01T21:51:44.362Z,13.06
2022-10-01T21:57:04.364Z,13.10
2022-10-01T22:02:29.946Z,13.15
2022-10-01T22:07:53.117Z,13.24
2022-10-01T22:13:17.106Z,13.26
2022-10-01T22:18:43.460Z,13.24
2022-10-01T22:24:11.880Z,13.19
2022-10-01T22:29:32.072Z,13.17
2022-10-01T22:34:49.842Z,13.12
2022-10-01T22:40:06.376Z,13.10
2022-10-01T22:45:18.352Z,13.07
2022-10-01T22:50:55.282Z,13.13
2022-10-01T22:56:07.293Z,13.11
2022-10-01T23:01:43.548Z,13.06
2022-10-01T23:06:58.970Z,13.00
2022-10-01T23:12:16.527Z,13.00
2022-10-01T23:17:34.019Z,12.95
2022-10-01T23:22:57.979Z,12.90
2022-10-01T23:28:27.336Z,12.88
2022-10-01T23:33:50.101Z,12.84
2022-10-01T23:39:34.577Z,12.80
2022-10-01T23:44:51.817Z,12.77
2022-10-01T23:50:16.091Z,12.72
2022-10-01T23:56:00.843Z,12.72
